createdAt,value
2024-02-02T00:00:03.309Z,1012.32
2024-02-02T00:05:03.122Z,1012.26
2024-02-02T00:10:03.367Z,1012.39
2024-02-02T00:15:03.241Z,1012.47
2024-02-02T00:20:03.346Z,1012.47
2024-02-02T00:25:03.090Z,1012.67
2024-02-02T00:30:03.306Z,1012.81
2024-02-02T00:35:03.202Z,1012.93
2024-02-02T00:40:03.516Z,1012.99
2024-02-02T00:45:03.321Z,1013.03
2024-02-02T00:50:03.397Z,1013.3
2024-02-02T00:55:03.260Z,1013.54
2024-02-02T01:00:03.312Z,1013.53
2024-02-02T01:05:03.070Z,1013.65
2024-02-02T01:10:03.253Z,1013.85
2024-02-02T01:15:03.082Z,1013.91
2024-02-02T01:20:03.400Z,1013.86
2024-02-02T01:25:02.976Z,1013.93
2024-02-02T01:30:03.474Z,1013.96
2024-02-02T01:35:03.076Z,1014.04
2024-02-02T01:40:03.269Z,1014.0
2024-02-02T01:45:03.049Z,1013.96
2024-02-02T01:50:03.452Z,1013.98
2024-02-02T01:55:03.080Z,1014.01
2024-02-02T02:00:03.326Z,1014.02
2024-02-02T02:05:03.117Z,1013.98
2024-02-02T02:10:03.257Z,1013.92
2024-02-02T02:15:03.233Z,1013.91
2024-02-02T02:20:03.409Z,1013.86
2024-02-02T02:25:03.123Z,1013.88
2024-02-02T02:30:03.393Z,1013.91
2024-02-02T02:35:03.014Z,1013.93
2024-02-02T02:40:03.317Z,1013.82
2024-02-02T02:45:03.002Z,1013.74
2024-02-02T02:50:03.252Z,1013.79
2024-02-02T02:55:02.987Z,1013.77
2024-02-02T03:00:03.165Z,1013.84
2024-02-02T03:05:03.057Z,1013.85
2024-02-02T03:10:03.264Z,1013.83
2024-02-02T03:15:03.059Z,1013.86
2024-02-02T03:20:03.168Z,1013.84
2024-02-02T03:25:03.002Z,1013.94
2024-02-02T03:30:03.125Z,1013.83
2024-02-02T03:35:03.025Z,1013.75
2024-02-02T03:40:03.417Z,1013.74
2024-02-02T03:45:02.994Z,1013.84
2024-02-02T03:50:03.497Z,1013.86
2024-02-02T03:55:03.090Z,1013.89
2024-02-02T04:00:03.376Z,1013.8
2024-02-02T04:05:03.068Z,1013.81
2024-02-02T04:10:03.894Z,1013.77
2024-02-02T04:15:03.058Z,1013.79
2024-02-02T04:20:03.257Z,1013.69
2024-02-02T04:25:03.057Z,1013.61
2024-02-02T04:30:03.247Z,1013.58
2024-02-02T04:35:03.078Z,1013.64
2024-02-02T04:40:03.377Z,1013.61
2024-02-02T04:45:02.984Z,1013.61
2024-02-02T04:50:03.148Z,1013.64
2024-02-02T04:55:02.997Z,1013.61
2024-02-02T05:00:03.321Z,1013.5
2024-02-02T05:05:03.045Z,1013.52
2024-02-02T05:10:03.284Z,1013.5
2024-02-02T05:15:03.036Z,1013.35
2024-02-02T05:20:03.286Z,1013.27
2024-02-02T05:25:03.133Z,1013.27
2024-02-02T05:30:03.280Z,1013.25
2024-02-02T05:35:03.163Z,1013.26
2024-02-02T05:40:03.319Z,1013.2
2024-02-02T05:45:03.013Z,1013.11
2024-02-02T05:50:03.383Z,1013.21
2024-02-02T05:55:03.028Z,1013.21
2024-02-02T06:00:03.235Z,1013.21
2024-02-02T06:05:03.038Z,1013.28
2024-02-02T06:10:03.320Z,1013.27
2024-02-02T06:15:03.014Z,1013.27
2024-02-02T06:20:03.281Z,1013.28
2024-02-02T06:25:03.002Z,1013.23
2024-02-02T06:30:03.468Z,1013.2
2024-02-02T06:35:03.038Z,1013.19
2024-02-02T06:40:03.298Z,1013.16
2024-02-02T06:45:03.086Z,1013.15
2024-02-02T06:50:03.242Z,1013.14
2024-02-02T06:55:02.970Z,1013.15
2024-02-02T07:00:03.222Z,1013.18
2024-02-02T07:05:03.041Z,1013.2
2024-02-02T07:10:03.340Z,1013.32
2024-02-02T07:15:03.003Z,1013.33
2024-02-02T07:20:03.502Z,1013.35
2024-02-02T07:25:03.028Z,1013.35
2024-02-02T07:30:03.369Z,1013.36
2024-02-02T07:35:03.170Z,1013.39
2024-02-02T07:40:03.341Z,1013.42
2024-02-02T07:45:03.104Z,1013.36
2024-02-02T07:50:03.301Z,1013.39
2024-02-02T07:55:02.967Z,1013.41
2024-02-02T08:00:03.447Z,1013.41
2024-02-02T08:05:03.044Z,1013.45
2024-02-02T08:10:03.293Z,1013.47
2024-02-02T08:15:03.091Z,1013.52
2024-02-02T08:20:03.203Z,1013.54
2024-02-02T08:25:03.002Z,1013.58
2024-02-02T08:30:03.229Z,1013.69
2024-02-02T08:35:02.996Z,1013.69
2024-02-02T08:40:03.193Z,1013.77
2024-02-02T08:45:03.197Z,1013.79
2024-02-02T08:50:03.387Z,1013.85
2024-02-02T08:55:02.998Z,1013.98
2024-02-02T09:00:03.302Z,1014.03
2024-02-02T09:05:03.090Z,1014.08
2024-02-02T09:10:03.355Z,1014.17
2024-02-02T09:15:03.100Z,1014.22
2024-02-02T09:20:03.422Z,1014.21
2024-02-02T09:25:03.093Z,1014.3
2024-02-02T09:30:03.437Z,1014.34
2024-02-02T09:35:03.015Z,1014.39
2024-02-02T09:40:03.323Z,1014.42
2024-02-02T09:45:03.181Z,1014.49
2024-02-02T09:50:03.412Z,1014.58
2024-02-02T09:55:03.104Z,1014.63
2024-02-02T10:00:03.285Z,1014.62
2024-02-02T10:05:03.206Z,1014.66
2024-02-02T10:10:03.291Z,1014.66
2024-02-02T10:15:04.608Z,1014.68
2024-02-02T10:20:03.148Z,1014.72
2024-02-02T10:25:03.224Z,1014.71
2024-02-02T10:30:03.197Z,1014.77
2024-02-02T10:35:02.985Z,1014.79
2024-02-02T10:40:03.389Z,1014.89
2024-02-02T10:45:03.072Z,1014.93
2024-02-02T10:50:03.449Z,1015.01
2024-02-02T10:55:03.140Z,1015.06
2024-02-02T11:00:03.411Z,1015.13
2024-02-02T11:05:03.078Z,1015.15
2024-02-02T11:10:03.295Z,1015.17
2024-02-02T11:15:03.087Z,1015.27
2024-02-02T11:20:03.367Z,1015.32
2024-02-02T11:25:03.072Z,1015.33
2024-02-02T11:30:03.369Z,1015.36
2024-02-02T11:35:03.102Z,1015.41
2024-02-02T11:40:03.206Z,1015.44
2024-02-02T11:45:03.054Z,1015.47
2024-02-02T11:50:03.387Z,1015.62
2024-02-02T11:55:03.020Z,1015.68
2024-02-02T12:00:03.199Z,1015.69
2024-02-02T12:05:03.102Z,1015.76
2024-02-02T12:10:03.311Z,1015.78
2024-02-02T12:15:03.062Z,1015.78
2024-02-02T12:20:03.419Z,1015.83
2024-02-02T12:25:03.010Z,1015.84
2024-02-02T12:30:03.385Z,1015.89
2024-02-02T12:35:03.299Z,1015.89
2024-02-02T12:40:03.245Z,1015.91
2024-02-02T12:45:02.997Z,1015.88
2024-02-02T12:50:03.281Z,1015.87
2024-02-02T12:55:02.994Z,1015.89
2024-02-02T13:00:03.203Z,1015.84
2024-02-02T13:05:03.087Z,1015.87
2024-02-02T13:10:03.228Z,1015.86
2024-02-02T13:15:03.040Z,1015.88
2024-02-02T13:20:03.464Z,1015.87
2024-02-02T13:25:03.111Z,1015.9
2024-02-02T13:30:03.764Z,1015.87
2024-02-02T13:35:03.109Z,1015.83
2024-02-02T13:40:03.266Z,1015.81
2024-02-02T13:45:03.104Z,1015.82
2024-02-02T13:50:03.359Z,1015.86
2024-02-02T13:55:02.947Z,1015.84
2024-02-02T14:00:03.350Z,1015.74
2024-02-02T14:05:03.150Z,1015.68
2024-02-02T14:10:03.228Z,1015.67
2024-02-02T14:15:03.082Z,1015.63
2024-02-02T14:20:03.327Z,1015.57
2024-02-02T14:25:04.244Z,1015.53
2024-02-02T14:30:03.239Z,1015.47
2024-02-02T14:35:03.182Z,1015.46
2024-02-02T14:40:03.335Z,1015.38
2024-02-02T14:45:03.131Z,1015.33
2024-02-02T14:50:03.371Z,1015.22
2024-02-02T14:55:03.024Z,1015.15
2024-02-02T15:00:03.545Z,1015.15
2024-02-02T15:05:03.132Z,1015.12
2024-02-02T15:10:03.315Z,1014.93
2024-02-02T15:15:03.063Z,1014.92
2024-02-02T15:20:03.469Z,1014.82
2024-02-02T15:25:02.967Z,1014.71
2024-02-02T15:30:03.313Z,1014.68
2024-02-02T15:35:03.154Z,1014.73
2024-02-02T15:40:03.403Z,1014.6
2024-02-02T15:45:03.087Z,1014.6
2024-02-02T15:50:03.369Z,1014.52
2024-02-02T15:55:03.021Z,1014.47
2024-02-02T16:00:03.373Z,1014.32
2024-02-02T16:05:03.027Z,1014.28
2024-02-02T16:10:03.418Z,1014.21
2024-02-02T16:15:03.147Z,1014.13
2024-02-02T16:20:03.476Z,1014.13
2024-02-02T16:25:02.979Z,1014.04
2024-02-02T16:30:03.182Z,1013.92
2024-02-02T16:35:03.090Z,1013.85
2024-02-02T16:40:03.219Z,1013.75
2024-02-02T16:45:03.264Z,1013.66
2024-02-02T16:50:03.899Z,1013.59
2024-02-02T16:55:03.003Z,1013.46
2024-02-02T17:00:03.309Z,1013.36
2024-02-02T17:05:03.214Z,1013.14
2024-02-02T17:10:03.208Z,1013.0
2024-02-02T17:15:03.218Z,1012.83
2024-02-02T17:20:04.782Z,1012.79
2024-02-02T17:25:03.031Z,1012.89
2024-02-02T17:30:03.268Z,1012.89
2024-02-02T17:35:03.139Z,1013.16
2024-02-02T17:40:03.227Z,1013.51
2024-02-02T17:45:03.072Z,1013.48
2024-02-02T17:50:04.171Z,1013.62
2024-02-02T17:55:02.904Z,1013.86
2024-02-02T18:00:03.177Z,1014.06
2024-02-02T18:05:03.056Z,1014.16
2024-02-02T18:10:03.118Z,1014.25
2024-02-02T18:15:03.141Z,1014.23
2024-02-02T18:20:03.380Z,1014.02
2024-02-02T18:25:03.000Z,1013.93
2024-02-02T18:30:03.202Z,1013.97
2024-02-02T18:35:03.055Z,1013.82
2024-02-02T18:40:03.235Z,1013.81
2024-02-02T18:45:03.141Z,1013.83
2024-02-02T18:50:03.389Z,1013.82
2024-02-02T18:55:02.938Z,1013.9
2024-02-02T19:00:03.163Z,1013.7
2024-02-02T19:05:03.188Z,1013.3
2024-02-02T19:10:03.179Z,1013.16
2024-02-02T19:15:03.093Z,1012.98
2024-02-02T19:20:03.516Z,1012.79
2024-02-02T19:25:02.949Z,1012.71
2024-02-02T19:30:03.160Z,1012.85
2024-02-02T19:35:02.962Z,1012.9
2024-02-02T19:40:03.277Z,1012.82
2024-02-02T19:45:03.120Z,1012.8
2024-02-02T19:50:03.390Z,1012.82
2024-02-02T19:55:05.095Z,1012.89
2024-02-02T20:00:03.284Z,1012.89
2024-02-02T20:05:03.036Z,1012.78
2024-02-02T20:10:03.177Z,1012.55
2024-02-02T20:15:03.178Z,1012.58
2024-02-02T20:20:03.418Z,1012.66
2024-02-02T20:25:02.971Z,1012.64
2024-02-02T20:30:03.180Z,1012.56
2024-02-02T20:35:03.259Z,1012.39
2024-02-02T20:40:03.202Z,1012.5
2024-02-02T20:45:04.487Z,1012.57
2024-02-02T20:50:03.510Z,1012.72
2024-02-02T20:55:02.977Z,1012.51
2024-02-02T21:00:03.255Z,1012.28
2024-02-02T21:05:03.062Z,1012.19
2024-02-02T21:10:03.367Z,1012.13
2024-02-02T21:15:03.051Z,1011.82
2024-02-02T21:20:03.501Z,1011.69
2024-02-02T21:25:02.961Z,1011.7
2024-02-02T21:30:03.263Z,1011.72
2024-02-02T21:35:03.062Z,1011.8
2024-02-02T21:40:03.268Z,1011.86
2024-02-02T21:45:03.001Z,1011.83
2024-02-02T21:50:03.436Z,1011.71
2024-02-02T21:55:03.080Z,1011.79
2024-02-02T22:00:03.429Z,1011.91
2024-02-02T22:05:03.297Z,1011.82
2024-02-02T22:10:03.355Z,1011.67
2024-02-02T22:15:03.169Z,1011.67
2024-02-02T22:20:03.541Z,1011.74
2024-02-02T22:25:03.021Z,1011.69
2024-02-02T22:30:03.284Z,1011.67
2024-02-02T22:35:03.268Z,1011.74
2024-02-02T22:40:03.275Z,1011.86
2024-02-02T22:45:03.264Z,1012.03
2024-02-02T22:50:03.388Z,1012.09
2024-02-02T22:55:03.089Z,1012.18
2024-02-02T23:00:05.994Z,1012.25
2024-02-02T23:05:03.250Z,1012.26
2024-02-02T23:10:03.235Z,1012.33
2024-02-02T23:15:03.183Z,1012.28
2024-02-02T23:20:03.383Z,1012.29
2024-02-02T23:25:02.984Z,1012.35
2024-02-02T23:30:03.284Z,1012.33
2024-02-02T23:35:03.046Z,1012.24
2024-02-02T23:40:03.450Z,1012.3
2024-02-02T23:45:03.054Z,1012.43
2024-02-02T23:50:03.390Z,1012.48
2024-02-02T23:55:03.124Z,1012.62
